Newport, NC (28570)

8:53 AM EDT on June 22, 2017 (GMT -0400)
MNPTN7 | | Change Station
Active Advisory: Beach Hazard Statement

Elev 68 ft 34.76 °N, 76.90 °W | Updated 41 days ago

Mostly Cloudy
Mostly Cloudy
65.0 °F
Feels Like 65.0 °F
N
5.0
Wind Variable Wind from NE
Gusts 13.0 mph

Today
High -- | Low -- °F
--% Chance of Precip.
Yesterday
High -- | Low -- °F
Precip. -- in
Pressure 30.10 in
Visibility 10.0 miles
Clouds Few 600 ft
Mostly Cloudy 10000 ft
Dew Point 61 °F
Humidity 88%
Rainfall 0.00 in
Snow Depth Not available.
5:54 AM 8:24 PM
Waning Crescent, 4% visible
METAR KNKT 221154Z 25005KT 10SM FEW006 BKN100 25/23 A3011 RMK AO2 SLP193 70044 T02500233 10250 20233 53007
Pressure 30.10 in
Visibility 10.0 miles
Clouds Few 600 ft
Mostly Cloudy 10000 ft
Dew Point 61 °F
Humidity 88%
Rainfall 0.00 in
Snow Depth Not available.
5:54 AM 8:24 PM
Waning Crescent, 4% visible
METAR KNKT 221154Z 25005KT 10SM FEW006 BKN100 25/23 A3011 RMK AO2 SLP193 70044 T02500233 10250 20233 53007

Get Your Daily Forecast Email!

Thanks for signing up!

Be on the lookout for a verification email in your inbox.

You'll start receiving severe weather alerts in your inbox..

×

10-Day Weather Forecast

Almanac

Astronomy

Jun. 22, 2017 Rise Set
Actual Time
Civil Twilight
Nautical Twilight
Astronomical Twilight
Moon
Length of Visible Light
Length of Day
Tomorrow will be .
, % of the Moon is Illuminated

Today's Extremes

State Highs State Lows

Community

WunderPhotos

Category 6

Welcome to Category 6. This is the collective home for Weather Underground's featured writeups by Dr. Jeff Masters (right), Bob Henson (left), Chris Burt, and other regular contributors.

Nearby

Air Quality

  Air Quality AQ Index Pollutant
Not available.

Snow Depth

Station Depth Elevation

Earthquake Activity

City Distance Mag. Time & Date
Minimum magnitude displayed is 2.5.

Coastal Water Temperatures

Place Temperature

Stations

Nearby Weather Stations

Station Location Temp. Windchill Dew Point Humidity Wind Precip. Elev Updated Type
                   

Watches & Warnings

Beach Hazard Statement
Issued: 4:21 AM EDT Jun. 22, 2017 – National Weather Service

... Beach hazards statement remains in effect through this
evening...

* hazards... high threat of rip currents.

* Location... from Surf City to Cape Hatteras.

* Timing and tides... the most likely time for strong rip currents
to occur is a couple hours either side of low tide, which will
occur around 1230 PM today.

Precautionary/preparedness actions...

If caught in a rip current remain calm. Don't fight the current.
Swim in a direction following the shoreline. When out of the
current, swim back to shore. If tired, float or tread water until
out of the rip current. If unable to escape, face the shore and
call or wave for help.